createdAt,value
2019-01-29T00:01:50.294Z,19.53
2019-01-29T00:04:20.315Z,19.17
2019-01-29T00:09:46.970Z,17.60
2019-01-29T00:12:17.090Z,18.27
2019-01-29T00:14:47.211Z,21.20
2019-01-29T00:17:18.557Z,22.43
2019-01-29T00:19:48.676Z,19.73
2019-01-29T00:22:20.435Z,18.70
2019-01-29T00:24:50.277Z,20.17
2019-01-29T00:27:21.440Z,22.63
2019-01-29T00:29:51.321Z,21.57
2019-01-29T00:32:22.685Z,24.13
2019-01-29T00:37:45.624Z,22.77
2019-01-29T00:40:16.709Z,23.23
2019-01-29T00:42:46.913Z,18.97
2019-01-29T00:45:17.968Z,19.77
2019-01-29T00:47:48.622Z,19.90
2019-01-29T00:50:18.680Z,16.87
2019-01-29T00:52:48.905Z,24.23
2019-01-29T00:55:18.919Z,20.43
2019-01-29T00:57:49.242Z,24.13
2019-01-29T01:00:23.957Z,25.50
2019-01-29T01:02:55.626Z,21.77
2019-01-29T01:05:25.642Z,23.20
2019-01-29T01:07:55.968Z,17.37
2019-01-29T01:10:27.520Z,18.77
2019-01-29T01:12:58.205Z,19.70
2019-01-29T01:15:28.171Z,19.50
2019-01-29T01:17:58.599Z,22.63
2019-01-29T01:20:28.612Z,18.57
2019-01-29T01:22:58.732Z,23.20
2019-01-29T01:25:28.850Z,23.37
2019-01-29T01:30:56.232Z,23.97
2019-01-29T01:33:26.187Z,24.53
2019-01-29T01:35:58.205Z,23.83
2019-01-29T01:38:28.428Z,21.13
2019-01-29T01:40:58.547Z,19.00
2019-01-29T01:43:30.252Z,19.03
2019-01-29T01:46:01.346Z,22.13
2019-01-29T01:48:31.469Z,21.93
2019-01-29T01:51:01.482Z,22.43
2019-01-29T01:53:31.806Z,20.00
2019-01-29T01:56:02.952Z,22.87
2019-01-29T01:58:33.273Z,23.77
2019-01-29T02:01:03.495Z,19.83
2019-01-29T02:03:35.356Z,18.87
2019-01-29T02:06:06.602Z,20.77
2019-01-29T02:08:36.926Z,19.30
2019-01-29T02:11:06.958Z,16.43
2019-01-29T02:13:37.062Z,20.97
2019-01-29T02:16:08.231Z,16.03
2019-01-29T02:18:38.355Z,17.03
2019-01-29T02:21:08.405Z,17.70
2019-01-29T02:23:38.504Z,14.67
2019-01-29T02:26:11.142Z,16.00
2019-01-29T02:28:41.505Z,17.53
2019-01-29T02:31:32.475Z,19.83
2019-01-29T02:34:02.765Z,17.17
2019-01-29T02:36:34.902Z,19.97
2019-01-29T02:39:07.206Z,20.30
2019-01-29T02:41:38.430Z,15.33
2019-01-29T02:44:11.881Z,18.83
2019-01-29T02:46:43.228Z,16.50
2019-01-29T02:52:10.602Z,15.20
2019-01-29T02:54:41.030Z,12.43
2019-01-29T02:57:13.809Z,15.00
2019-01-29T02:59:45.567Z,15.87
2019-01-29T03:02:15.508Z,12.50
2019-01-29T03:04:45.603Z,15.10
2019-01-29T03:07:16.992Z,13.40
2019-01-29T03:09:48.741Z,15.07
2019-01-29T03:12:18.802Z,15.37
2019-01-29T03:14:48.950Z,14.43
2019-01-29T03:17:21.627Z,17.70
2019-01-29T03:19:51.939Z,16.57
2019-01-29T03:22:21.970Z,16.13
2019-01-29T03:27:31.972Z,17.77
2019-01-29T03:30:02.363Z,21.20
2019-01-29T03:32:32.482Z,18.53
2019-01-29T03:35:02.730Z,16.57
2019-01-29T03:37:44.393Z,21.07
2019-01-29T03:40:17.012Z,21.50
2019-01-29T03:42:46.892Z,25.20
2019-01-29T03:45:17.576Z,21.53
2019-01-29T03:47:47.568Z,22.17
2019-01-29T03:50:22.515Z,26.43
2019-01-29T03:52:52.485Z,22.73
2019-01-29T03:55:23.107Z,24.77
2019-01-29T03:57:54.667Z,27.33
2019-01-29T04:00:26.657Z,23.53
2019-01-29T04:02:56.646Z,24.70
2019-01-29T04:05:26.770Z,26.47
2019-01-29T04:07:56.784Z,29.07
2019-01-29T04:10:28.542Z,22.97
2019-01-29T04:12:59.993Z,27.30
2019-01-29T04:15:30.216Z,24.00
2019-01-29T04:18:00.236Z,22.33
2019-01-29T04:20:31.893Z,24.33
2019-01-29T04:23:02.014Z,26.20
2019-01-29T04:25:32.332Z,24.07
2019-01-29T04:28:02.348Z,29.03
2019-01-29T04:30:32.572Z,29.93
2019-01-29T04:33:04.228Z,30.33
2019-01-29T04:35:34.345Z,29.07
2019-01-29T04:38:04.367Z,29.40
2019-01-29T04:40:34.895Z,27.50
2019-01-29T04:43:05.013Z,39.33
2019-01-29T04:45:35.234Z,27.63
2019-01-29T04:48:05.152Z,33.67
2019-01-29T04:50:35.677Z,30.57
2019-01-29T04:53:17.748Z,33.73
2019-01-29T04:55:48.920Z,43.57
2019-01-29T04:58:19.042Z,36.03
2019-01-29T05:00:49.261Z,34.90
2019-01-29T05:03:19.277Z,42.17
2019-01-29T05:05:50.558Z,31.60
2019-01-29T05:08:20.540Z,37.93
2019-01-29T05:10:50.559Z,34.40
2019-01-29T05:13:22.213Z,35.40
2019-01-29T05:15:53.843Z,34.67
2019-01-29T05:18:21.221Z,33.93
2019-01-29T05:20:51.361Z,31.00
2019-01-29T05:23:21.564Z,32.40
2019-01-29T05:25:52.708Z,33.73
2019-01-29T05:28:23.133Z,28.70
2019-01-29T05:30:53.457Z,31.10
2019-01-29T05:33:23.679Z,27.23
2019-01-29T05:35:54.745Z,36.87
2019-01-29T05:38:26.206Z,32.87
2019-01-29T05:40:56.290Z,27.70
2019-01-29T05:43:26.410Z,29.77
2019-01-29T05:45:58.577Z,29.63
2019-01-29T05:48:28.806Z,33.07
2019-01-29T05:51:00.455Z,68.87
2019-01-29T05:53:30.778Z,52.80
2019-01-29T05:56:02.026Z,40.83
2019-01-29T05:58:32.046Z,31.70
2019-01-29T06:01:02.298Z,29.43
2019-01-29T06:03:32.587Z,32.47
2019-01-29T06:06:04.043Z,28.57
2019-01-29T06:08:34.157Z,30.67
2019-01-29T06:11:04.584Z,28.83
2019-01-29T06:13:34.707Z,28.47
2019-01-29T06:16:05.949Z,30.57
2019-01-29T06:18:36.070Z,31.43
2019-01-29T06:21:06.194Z,34.47
2019-01-29T06:23:36.205Z,28.73
2019-01-29T06:26:09.090Z,32.33
2019-01-29T06:28:40.577Z,31.63
2019-01-29T06:31:10.864Z,32.27
2019-01-29T06:33:41.077Z,33.37
2019-01-29T06:36:12.331Z,31.43
2019-01-29T06:38:43.475Z,41.40
2019-01-29T06:41:13.799Z,35.13
2019-01-29T06:43:43.860Z,35.40
2019-01-29T06:46:15.062Z,30.37
2019-01-29T06:48:45.213Z,33.47
2019-01-29T06:51:15.710Z,35.10
2019-01-29T06:53:46.001Z,83.97
2019-01-29T06:56:18.326Z,70.83
2019-01-29T06:58:48.527Z,43.77
2019-01-29T07:01:18.877Z,32.83
2019-01-29T07:03:49.893Z,35.90
2019-01-29T07:06:21.137Z,28.87
2019-01-29T07:08:51.153Z,30.20
2019-01-29T07:11:21.478Z,35.07
2019-01-29T07:13:51.598Z,30.30
2019-01-29T07:16:27.175Z,27.80
2019-01-29T07:18:58.802Z,23.57
2019-01-29T07:21:29.025Z,43.50
2019-01-29T07:24:00.680Z,50.70
2019-01-29T07:26:32.025Z,32.70
2019-01-29T07:29:02.042Z,27.63
2019-01-29T07:31:32.572Z,24.30
2019-01-29T07:34:02.793Z,25.97
2019-01-29T07:36:34.041Z,23.20
2019-01-29T07:39:08.264Z,26.13
2019-01-29T07:41:38.374Z,23.23
2019-01-29T07:44:11.948Z,26.63
2019-01-29T07:46:43.119Z,31.10
2019-01-29T07:49:16.414Z,21.97
2019-01-29T07:51:46.535Z,24.87
2019-01-29T07:54:16.679Z,24.77
2019-01-29T07:56:52.300Z,27.53
2019-01-29T07:59:32.433Z,24.70
2019-01-29T08:01:54.178Z,24.47
2019-01-29T08:04:24.297Z,30.40
2019-01-29T08:06:56.465Z,23.83
2019-01-29T08:09:26.481Z,28.93
2019-01-29T08:11:56.601Z,32.80
2019-01-29T08:14:28.463Z,29.27
2019-01-29T08:17:00.117Z,30.23
2019-01-29T08:19:30.134Z,26.30
2019-01-29T08:22:00.493Z,27.73
2019-01-29T08:24:30.666Z,25.20
2019-01-29T08:27:01.823Z,27.50
2019-01-29T08:29:44.786Z,26.73
2019-01-29T08:32:17.115Z,25.02
2019-01-29T08:34:47.644Z,26.87
2019-01-29T08:37:20.527Z,22.30
2019-01-29T08:39:53.617Z,24.30
2019-01-29T08:42:24.454Z,26.57
2019-01-29T08:44:55.087Z,23.83
2019-01-29T08:47:28.509Z,25.88
2019-01-29T08:49:58.916Z,22.65
2019-01-29T08:52:29.360Z,23.27
2019-01-29T08:54:59.739Z,20.72
2019-01-29T08:57:31.287Z,20.68
2019-01-29T09:02:48.148Z,18.92
2019-01-29T09:05:18.729Z,22.00
2019-01-29T09:07:49.196Z,25.30
2019-01-29T09:10:21.594Z,24.52
2019-01-29T09:12:52.055Z,20.02
2019-01-29T09:15:22.509Z,19.23
2019-01-29T09:17:52.968Z,18.70
2019-01-29T09:20:23.810Z,23.98
2019-01-29T09:22:54.284Z,21.55
2019-01-29T09:25:24.741Z,20.45
2019-01-29T09:27:55.528Z,18.90
2019-01-29T09:30:25.880Z,24.37
2019-01-29T09:32:56.413Z,21.97
2019-01-29T09:35:26.851Z,34.98
2019-01-29T09:37:57.570Z,26.42
2019-01-29T09:40:28.966Z,23.50
2019-01-29T09:42:59.535Z,24.32
2019-01-29T09:45:29.905Z,22.40
2019-01-29T09:48:00.378Z,21.35
2019-01-29T09:50:30.814Z,23.15
2019-01-29T09:53:01.325Z,22.37
2019-01-29T09:55:31.805Z,28.45
2019-01-29T09:58:02.372Z,19.23
2019-01-29T10:00:35.180Z,20.50
2019-01-29T10:03:06.127Z,19.65
2019-01-29T10:05:36.697Z,18.65
2019-01-29T10:08:07.281Z,21.70
2019-01-29T10:10:37.759Z,20.02
2019-01-29T10:13:08.352Z,23.85
2019-01-29T10:15:38.824Z,20.43
2019-01-29T10:18:09.402Z,22.20
2019-01-29T10:20:39.887Z,22.27
2019-01-29T10:23:10.478Z,23.38
2019-01-29T10:25:42.101Z,23.57
2019-01-29T10:28:12.711Z,24.60
2019-01-29T10:30:43.179Z,27.85
2019-01-29T10:33:13.819Z,28.57
2019-01-29T10:35:56.912Z,24.05
2019-01-29T10:38:27.453Z,25.85
2019-01-29T10:40:58.805Z,24.35
2019-01-29T10:43:28.771Z,26.83
2019-01-29T10:45:59.661Z,31.50
2019-01-29T10:48:29.660Z,31.27
2019-01-29T10:50:59.556Z,28.07
2019-01-29T10:53:29.624Z,28.57
2019-01-29T10:56:00.641Z,32.70
2019-01-29T10:58:30.646Z,30.70
2019-01-29T11:01:00.544Z,31.97
2019-01-29T11:03:30.702Z,32.17
2019-01-29T11:06:01.741Z,28.90
2019-01-29T11:08:31.740Z,29.83
2019-01-29T11:11:01.628Z,28.97
2019-01-29T11:13:31.608Z,35.10
2019-01-29T11:16:02.604Z,32.60
2019-01-29T11:18:32.590Z,32.73
2019-01-29T11:21:02.477Z,37.03
2019-01-29T11:23:36.628Z,34.43
2019-01-29T11:26:07.609Z,28.63
2019-01-29T11:28:37.611Z,38.13
2019-01-29T11:31:07.519Z,29.83
2019-01-29T11:33:37.583Z,31.07
2019-01-29T11:36:08.821Z,29.97
2019-01-29T11:38:39.146Z,29.87
2019-01-29T11:41:11.725Z,34.90
2019-01-29T11:43:41.947Z,27.67
2019-01-29T11:46:12.303Z,33.63
2019-01-29T11:51:23.569Z,34.37
2019-01-29T11:53:53.790Z,33.90
2019-01-29T11:56:23.741Z,34.17
2019-01-29T11:58:53.817Z,32.67
2019-01-29T12:01:23.941Z,33.57
2019-01-29T12:03:54.159Z,34.57
2019-01-29T12:06:27.749Z,38.63
2019-01-29T12:08:58.186Z,34.43
2019-01-29T12:11:29.872Z,33.73
2019-01-29T12:14:01.604Z,33.40
2019-01-29T12:16:32.849Z,31.03
2019-01-29T12:21:44.493Z,30.27
2019-01-29T12:24:19.880Z,29.63
2019-01-29T12:26:53.144Z,27.83
2019-01-29T12:29:23.765Z,29.90
2019-01-29T12:31:54.595Z,31.43
2019-01-29T12:34:45.676Z,29.47
2019-01-29T12:37:16.195Z,29.80
2019-01-29T12:39:48.261Z,27.07
2019-01-29T12:42:20.782Z,29.97
2019-01-29T12:47:32.545Z,27.17
2019-01-29T12:50:04.003Z,28.73
2019-01-29T12:52:46.650Z,31.77
2019-01-29T12:55:16.759Z,34.70
2019-01-29T12:57:46.759Z,32.67
2019-01-29T13:00:19.990Z,29.27
2019-01-29T13:02:49.851Z,30.47
2019-01-29T13:05:19.969Z,35.83
2019-01-29T13:07:50.020Z,31.73
2019-01-29T13:10:24.471Z,36.53
2019-01-29T13:12:54.355Z,31.83
2019-01-29T13:15:32.660Z,33.13
2019-01-29T13:18:02.901Z,30.60
2019-01-29T13:20:33.077Z,32.03
2019-01-29T13:23:03.096Z,31.70
2019-01-29T13:25:33.417Z,28.63
2019-01-29T13:28:03.412Z,34.10
2019-01-29T13:30:39.506Z,33.53
2019-01-29T13:33:11.558Z,28.03
2019-01-29T13:35:42.959Z,32.23
2019-01-29T13:38:12.819Z,30.30
2019-01-29T13:40:43.150Z,33.70
2019-01-29T13:43:13.105Z,31.70
2019-01-29T13:45:44.306Z,33.63
2019-01-29T13:48:14.247Z,29.10
2019-01-29T13:50:51.609Z,33.00
2019-01-29T13:53:23.676Z,34.10
2019-01-29T13:55:55.025Z,32.17
2019-01-29T13:58:25.450Z,27.23
2019-01-29T14:00:56.695Z,36.13
2019-01-29T14:03:26.919Z,33.90
2019-01-29T14:05:58.350Z,30.67
2019-01-29T14:08:28.515Z,25.90
2019-01-29T14:10:58.609Z,28.27
2019-01-29T14:13:28.660Z,31.60
2019-01-29T14:15:59.870Z,33.97
2019-01-29T14:18:29.889Z,31.83
2019-01-29T14:21:00.008Z,32.93
2019-01-29T14:23:30.212Z,37.00
2019-01-29T14:26:01.475Z,39.27
2019-01-29T14:28:31.594Z,34.97
2019-01-29T14:31:01.847Z,36.53
2019-01-29T14:33:31.935Z,38.83
2019-01-29T14:36:03.345Z,37.10
2019-01-29T14:38:51.216Z,34.63
2019-01-29T14:41:21.135Z,31.73
2019-01-29T14:43:52.186Z,33.70
2019-01-29T14:46:23.275Z,37.77
2019-01-29T14:48:53.443Z,38.07
2019-01-29T14:51:23.789Z,37.13
2019-01-29T14:53:53.917Z,30.90
2019-01-29T14:56:26.184Z,32.13
2019-01-29T14:58:56.377Z,31.27
2019-01-29T15:01:26.598Z,26.27
2019-01-29T15:03:56.510Z,26.63
2019-01-29T15:06:32.244Z,31.10
2019-01-29T15:08:58.660Z,28.23
2019-01-29T15:11:29.276Z,35.20
2019-01-29T15:13:59.374Z,31.17
2019-01-29T15:16:31.921Z,30.20
2019-01-29T15:19:11.678Z,31.20
2019-01-29T15:21:41.567Z,31.20
2019-01-29T15:24:11.323Z,39.40
2019-01-29T15:26:42.193Z,33.13
2019-01-29T15:29:11.955Z,32.40
2019-01-29T15:31:41.798Z,42.03
2019-01-29T15:34:11.615Z,43.23
2019-01-29T15:36:44.147Z,38.97
2019-01-29T15:39:13.986Z,56.13
2019-01-29T15:41:44.078Z,38.47
2019-01-29T15:44:15.163Z,43.00
2019-01-29T15:46:46.493Z,37.20
2019-01-29T15:49:16.684Z,37.50
2019-01-29T15:51:46.699Z,38.80
2019-01-29T15:54:16.924Z,39.63
2019-01-29T15:56:46.941Z,38.70
2019-01-29T15:59:17.372Z,38.00
2019-01-29T16:01:48.614Z,38.57
2019-01-29T16:04:19.303Z,40.27
2019-01-29T16:06:50.692Z,45.13
2019-01-29T16:09:20.841Z,41.97
2019-01-29T16:11:51.037Z,50.03
2019-01-29T16:14:21.477Z,45.93
2019-01-29T16:16:52.470Z,43.57
2019-01-29T16:19:22.623Z,41.03
2019-01-29T16:21:52.536Z,38.70
2019-01-29T16:24:23.064Z,40.00
2019-01-29T16:26:54.107Z,43.77
2019-01-29T16:29:24.459Z,38.10
2019-01-29T16:31:54.250Z,41.63
2019-01-29T16:34:24.126Z,44.47
2019-01-29T16:36:56.033Z,39.47
2019-01-29T16:39:25.984Z,43.97
2019-01-29T16:41:55.748Z,40.77
2019-01-29T16:44:26.660Z,41.23
2019-01-29T16:46:57.612Z,43.37
2019-01-29T16:49:27.454Z,47.47
2019-01-29T16:51:57.226Z,41.47
2019-01-29T16:54:27.087Z,48.47
2019-01-29T16:56:56.929Z,42.87
2019-01-29T16:59:26.802Z,44.50
2019-01-29T17:01:56.637Z,43.97
2019-01-29T17:04:28.331Z,46.47
2019-01-29T17:06:59.049Z,49.33
2019-01-29T17:09:28.905Z,50.47
2019-01-29T17:11:58.752Z,79.93
2019-01-29T17:14:28.544Z,75.03
2019-01-29T17:16:59.413Z,132.23
2019-01-29T17:19:29.209Z,125.83
2019-01-29T17:21:59.165Z,104.40
2019-01-29T17:24:28.936Z,90.00
2019-01-29T17:27:00.004Z,78.37
2019-01-29T17:29:29.777Z,80.27
2019-01-29T17:31:59.618Z,61.73
2019-01-29T17:34:29.392Z,58.73
2019-01-29T17:37:00.493Z,57.60
2019-01-29T17:39:30.285Z,64.87
2019-01-29T17:42:00.253Z,65.43
2019-01-29T17:44:31.746Z,67.27
2019-01-29T17:47:02.689Z,58.17
2019-01-29T17:49:32.492Z,49.53
2019-01-29T17:52:02.351Z,54.70
2019-01-29T17:54:33.183Z,56.43
2019-01-29T17:57:04.105Z,48.60
2019-01-29T17:59:33.880Z,53.33
2019-01-29T18:02:04.455Z,56.47
2019-01-29T18:04:34.321Z,115.57
2019-01-29T18:07:05.306Z,69.63
2019-01-29T18:09:35.075Z,68.93
2019-01-29T18:12:04.911Z,73.80
2019-01-29T18:14:34.862Z,57.13
2019-01-29T18:17:05.707Z,56.00
2019-01-29T18:19:35.778Z,53.70
2019-01-29T18:22:05.536Z,83.03
2019-01-29T18:24:35.420Z,134.33
2019-01-29T18:27:06.264Z,66.30
2019-01-29T18:29:36.178Z,54.00
2019-01-29T18:32:07.077Z,59.13
2019-01-29T18:34:37.056Z,71.27
2019-01-29T18:37:08.031Z,70.87
2019-01-29T18:39:37.975Z,68.40
2019-01-29T18:42:07.790Z,75.67
2019-01-29T18:44:38.580Z,69.37
2019-01-29T18:47:09.477Z,65.50
2019-01-29T18:49:39.350Z,110.50
2019-01-29T18:52:09.117Z,66.80
2019-01-29T18:54:38.959Z,59.93
2019-01-29T18:57:10.868Z,53.27
2019-01-29T18:59:40.661Z,50.13
2019-01-29T19:02:10.527Z,57.63
2019-01-29T19:04:40.331Z,58.57
2019-01-29T19:07:10.526Z,58.00
2019-01-29T19:09:52.916Z,57.43
2019-01-29T19:12:23.118Z,62.27
2019-01-29T19:14:52.992Z,63.67
2019-01-29T19:17:24.125Z,61.50
2019-01-29T19:19:56.289Z,61.10
2019-01-29T19:22:27.706Z,53.50
2019-01-29T19:24:57.718Z,58.97
2019-01-29T19:27:27.637Z,60.17
2019-01-29T19:29:57.406Z,51.67
2019-01-29T19:32:27.346Z,54.90
2019-01-29T19:34:57.129Z,63.03
2019-01-29T19:37:28.238Z,66.33
2019-01-29T19:39:58.077Z,63.23
2019-01-29T19:42:30.463Z,54.13
2019-01-29T19:45:04.557Z,47.93
2019-01-29T19:47:35.970Z,52.17
2019-01-29T19:53:09.454Z,47.47
2019-01-29T19:55:41.826Z,55.60
2019-01-29T19:58:12.451Z,55.83
2019-01-29T20:00:42.798Z,55.10
2019-01-29T20:03:12.976Z,53.17
2019-01-29T20:05:44.160Z,55.87
2019-01-29T20:08:14.385Z,54.57
2019-01-29T20:10:44.574Z,50.17
2019-01-29T20:13:15.002Z,52.93
2019-01-29T20:15:46.884Z,62.60
2019-01-29T20:18:36.639Z,52.83
2019-01-29T20:21:07.065Z,59.90
2019-01-29T20:23:37.493Z,60.97
2019-01-29T20:26:07.816Z,53.67
2019-01-29T20:28:42.575Z,52.10
2019-01-29T20:31:09.945Z,66.27
2019-01-29T20:33:40.428Z,56.73
2019-01-29T20:36:11.964Z,56.77
2019-01-29T20:38:42.561Z,54.77
2019-01-29T20:41:13.342Z,61.20
2019-01-29T20:43:44.591Z,62.23
2019-01-29T20:46:16.146Z,56.07
2019-01-29T20:48:47.060Z,65.73
2019-01-29T20:51:17.374Z,56.00
2019-01-29T20:53:47.527Z,60.20
2019-01-29T20:56:59.675Z,57.93
2019-01-29T21:02:09.700Z,63.97
2019-01-29T21:04:41.433Z,66.00
2019-01-29T21:07:11.579Z,61.50
2019-01-29T21:09:42.017Z,55.43
2019-01-29T21:12:12.022Z,59.53
2019-01-29T21:14:42.448Z,65.60
2019-01-29T21:17:13.593Z,68.10
2019-01-29T21:19:43.770Z,65.73
2019-01-29T21:22:15.091Z,56.67
2019-01-29T21:24:46.054Z,52.17
2019-01-29T21:27:28.990Z,54.63
2019-01-29T21:30:01.725Z,57.13
2019-01-29T21:32:32.022Z,62.20
2019-01-29T21:37:58.069Z,59.80
2019-01-29T21:40:30.345Z,62.17
2019-01-29T21:43:01.954Z,63.60
2019-01-29T21:45:32.996Z,55.10
2019-01-29T21:48:03.283Z,51.77
2019-01-29T21:50:34.926Z,59.47
2019-01-29T21:53:05.029Z,63.07
2019-01-29T21:55:35.697Z,64.30
2019-01-29T21:58:06.052Z,73.60
2019-01-29T22:00:41.535Z,61.33
2019-01-29T22:03:11.736Z,60.33
2019-01-29T22:05:42.501Z,63.10
2019-01-29T22:08:12.949Z,66.17
2019-01-29T22:10:43.344Z,62.27
2019-01-29T22:13:13.713Z,61.70
2019-01-29T22:15:43.717Z,57.77
2019-01-29T22:18:13.962Z,70.37
2019-01-29T22:23:39.641Z,64.27
2019-01-29T22:26:10.890Z,77.70
2019-01-29T22:28:41.034Z,68.37
2019-01-29T22:31:11.332Z,65.00
2019-01-29T22:33:41.248Z,71.63
2019-01-29T22:36:11.469Z,62.17
2019-01-29T22:38:41.793Z,58.10
2019-01-29T22:41:12.015Z,63.67
2019-01-29T22:43:42.271Z,70.83
2019-01-29T22:48:59.460Z,57.17
2019-01-29T22:51:31.213Z,70.47
2019-01-29T22:54:01.249Z,59.27
2019-01-29T22:56:31.182Z,58.93
2019-01-29T22:59:01.042Z,64.67
2019-01-29T23:01:31.953Z,65.83
2019-01-29T23:04:02.396Z,60.87
2019-01-29T23:06:36.631Z,66.67
2019-01-29T23:09:09.510Z,66.23
2019-01-29T23:11:39.553Z,61.77
2019-01-29T23:14:09.417Z,64.77
2019-01-29T23:16:40.282Z,68.13
2019-01-29T23:19:10.055Z,75.00
2019-01-29T23:21:39.900Z,74.53
2019-01-29T23:24:09.715Z,75.20
2019-01-29T23:26:40.549Z,75.13
2019-01-29T23:29:10.512Z,65.37
2019-01-29T23:31:40.287Z,71.17
2019-01-29T23:34:10.142Z,72.07
2019-01-29T23:36:40.942Z,71.00
2019-01-29T23:39:12.412Z,67.07
2019-01-29T23:41:42.633Z,71.37
2019-01-29T23:44:12.510Z,66.90
2019-01-29T23:46:44.420Z,69.80
2019-01-29T23:49:14.290Z,65.00
2019-01-29T23:51:45.157Z,74.43
2019-01-29T23:54:15.036Z,67.67
2019-01-29T23:56:46.030Z,71.83
2019-01-29T23:59:15.939Z,70.60
